sensor_id;sensor_type;location;lat;lon;timestamp;P1;durP1;ratioP1;P2;durP2;ratioP2
80623;SDS011;70269;44.768;9.600;2023-05-24T00:00:51;13.57;;;6.80;;
80623;SDS011;70269;44.768;9.600;2023-05-24T00:03:17;9.15;;;6.30;;
80623;SDS011;70269;44.768;9.600;2023-05-24T00:05:43;9.95;;;6.68;;
80623;SDS011;70269;44.768;9.600;2023-05-24T00:08:10;11.02;;;7.13;;
80623;SDS011;70269;44.768;9.600;2023-05-24T00:10:36;13.02;;;7.72;;
80623;SDS011;70269;44.768;9.600;2023-05-24T00:13:01;10.82;;;6.45;;
80623;SDS011;70269;44.768;9.600;2023-05-24T00:15:27;10.73;;;6.50;;
80623;SDS011;70269;44.768;9.600;2023-05-24T00:17:52;10.55;;;6.60;;
80623;SDS011;70269;44.768;9.600;2023-05-24T00:20:18;12.95;;;6.82;;
80623;SDS011;70269;44.768;9.600;2023-05-24T00:22:44;12.77;;;7.03;;
80623;SDS011;70269;44.768;9.600;2023-05-24T00:25:10;10.07;;;6.72;;
80623;SDS011;70269;44.768;9.600;2023-05-24T00:27:36;9.77;;;7.00;;
80623;SDS011;70269;44.768;9.600;2023-05-24T00:30:02;11.50;;;6.55;;
80623;SDS011;70269;44.768;9.600;2023-05-24T00:32:28;12.98;;;7.25;;
80623;SDS011;70269;44.768;9.600;2023-05-24T00:34:55;11.10;;;7.18;;
80623;SDS011;70269;44.768;9.600;2023-05-24T00:37:20;10.85;;;6.50;;
80623;SDS011;70269;44.768;9.600;2023-05-24T00:39:46;11.13;;;6.80;;
80623;SDS011;70269;44.768;9.600;2023-05-24T00:42:11;10.25;;;6.20;;
80623;SDS011;70269;44.768;9.600;2023-05-24T00:44:37;11.23;;;7.18;;
80623;SDS011;70269;44.768;9.600;2023-05-24T00:47:02;13.20;;;7.68;;
80623;SDS011;70269;44.768;9.600;2023-05-24T00:49:28;9.90;;;6.82;;
80623;SDS011;70269;44.768;9.600;2023-05-24T00:51:54;10.20;;;6.80;;
80623;SDS011;70269;44.768;9.600;2023-05-24T00:54:19;11.18;;;6.53;;
80623;SDS011;70269;44.768;9.600;2023-05-24T00:56:46;9.90;;;7.00;;
80623;SDS011;70269;44.768;9.600;2023-05-24T00:59:12;10.45;;;6.50;;
80623;SDS011;70269;44.768;9.600;2023-05-24T01:01:38;13.38;;;7.45;;
80623;SDS011;70269;44.768;9.600;2023-05-24T01:04:06;10.93;;;6.78;;
80623;SDS011;70269;44.768;9.600;2023-05-24T01:06:37;11.38;;;7.13;;
80623;SDS011;70269;44.768;9.600;2023-05-24T01:15:32;12.82;;;6.78;;
80623;SDS011;70269;44.768;9.600;2023-05-24T01:18:23;13.50;;;6.68;;
80623;SDS011;70269;44.768;9.600;2023-05-24T01:20:58;11.20;;;6.72;;
80623;SDS011;70269;44.768;9.600;2023-05-24T01:29:24;11.80;;;6.90;;
80623;SDS011;70269;44.768;9.600;2023-05-24T01:31:50;11.15;;;6.70;;
80623;SDS011;70269;44.768;9.600;2023-05-24T01:34:16;12.82;;;7.15;;
80623;SDS011;70269;44.768;9.600;2023-05-24T01:36:42;12.25;;;6.97;;
80623;SDS011;70269;44.768;9.600;2023-05-24T01:39:07;10.40;;;6.90;;
80623;SDS011;70269;44.768;9.600;2023-05-24T01:47:14;9.65;;;6.75;;
80623;SDS011;70269;44.768;9.600;2023-05-24T01:50:01;9.68;;;6.50;;
80623;SDS011;70269;44.768;9.600;2023-05-24T01:52:35;11.40;;;6.60;;
80623;SDS011;70269;44.768;9.600;2023-05-24T01:55:02;10.60;;;7.40;;
80623;SDS011;70269;44.768;9.600;2023-05-24T01:57:30;10.02;;;6.68;;
80623;SDS011;70269;44.768;9.600;2023-05-24T01:59:59;9.15;;;6.18;;
80623;SDS011;70269;44.768;9.600;2023-05-24T02:02:26;9.68;;;6.00;;
80623;SDS011;70269;44.768;9.600;2023-05-24T02:04:52;10.70;;;7.03;;
80623;SDS011;70269;44.768;9.600;2023-05-24T02:07:18;12.00;;;7.07;;
80623;SDS011;70269;44.768;9.600;2023-05-24T02:09:44;11.25;;;6.40;;
80623;SDS011;70269;44.768;9.600;2023-05-24T02:12:11;10.60;;;7.00;;
80623;SDS011;70269;44.768;9.600;2023-05-24T02:14:37;12.45;;;6.95;;
80623;SDS011;70269;44.768;9.600;2023-05-24T02:17:03;10.65;;;6.47;;
80623;SDS011;70269;44.768;9.600;2023-05-24T02:19:30;14.85;;;7.05;;
80623;SDS011;70269;44.768;9.600;2023-05-24T02:21:55;10.50;;;7.00;;
80623;SDS011;70269;44.768;9.600;2023-05-24T02:24:21;13.05;;;7.25;;
80623;SDS011;70269;44.768;9.600;2023-05-24T02:26:46;12.18;;;6.93;;
80623;SDS011;70269;44.768;9.600;2023-05-24T02:29:12;9.27;;;6.70;;
80623;SDS011;70269;44.768;9.600;2023-05-24T02:31:38;10.52;;;6.35;;
80623;SDS011;70269;44.768;9.600;2023-05-24T02:34:03;10.77;;;6.80;;
80623;SDS011;70269;44.768;9.600;2023-05-24T02:36:29;10.70;;;6.70;;
80623;SDS011;70269;44.768;9.600;2023-05-24T02:38:56;10.50;;;6.22;;
80623;SDS011;70269;44.768;9.600;2023-05-24T02:41:22;12.38;;;7.90;;
80623;SDS011;70269;44.768;9.600;2023-05-24T02:43:47;13.65;;;7.18;;
80623;SDS011;70269;44.768;9.600;2023-05-24T02:46:13;10.90;;;6.78;;
80623;SDS011;70269;44.768;9.600;2023-05-24T02:48:39;13.27;;;6.88;;
80623;SDS011;70269;44.768;9.600;2023-05-24T02:51:05;11.20;;;6.85;;
80623;SDS011;70269;44.768;9.600;2023-05-24T02:53:31;13.38;;;6.95;;
80623;SDS011;70269;44.768;9.600;2023-05-24T02:55:57;12.38;;;7.95;;
80623;SDS011;70269;44.768;9.600;2023-05-24T02:58:24;10.57;;;6.85;;
80623;SDS011;70269;44.768;9.600;2023-05-24T03:00:53;12.70;;;7.05;;
80623;SDS011;70269;44.768;9.600;2023-05-24T03:03:20;10.25;;;7.18;;
80623;SDS011;70269;44.768;9.600;2023-05-24T03:05:45;11.30;;;7.18;;
80623;SDS011;70269;44.768;9.600;2023-05-24T03:08:12;12.02;;;6.72;;
80623;SDS011;70269;44.768;9.600;2023-05-24T03:10:37;11.55;;;7.50;;
80623;SDS011;70269;44.768;9.600;2023-05-24T03:13:05;11.43;;;6.25;;
80623;SDS011;70269;44.768;9.600;2023-05-24T03:15:30;9.75;;;6.72;;
80623;SDS011;70269;44.768;9.600;2023-05-24T03:17:56;13.18;;;6.88;;
80623;SDS011;70269;44.768;9.600;2023-05-24T03:20:22;10.27;;;6.18;;
80623;SDS011;70269;44.768;9.600;2023-05-24T03:22:49;10.98;;;6.30;;
80623;SDS011;70269;44.768;9.600;2023-05-24T03:25:15;9.82;;;6.18;;
80623;SDS011;70269;44.768;9.600;2023-05-24T03:27:41;10.50;;;6.32;;
80623;SDS011;70269;44.768;9.600;2023-05-24T03:30:07;9.10;;;6.40;;
80623;SDS011;70269;44.768;9.600;2023-05-24T03:32:40;11.13;;;7.32;;
80623;SDS011;70269;44.768;9.600;2023-05-24T03:35:06;14.68;;;6.55;;
80623;SDS011;70269;44.768;9.600;2023-05-24T03:37:32;10.95;;;6.40;;
80623;SDS011;70269;44.768;9.600;2023-05-24T03:39:57;10.82;;;6.55;;
80623;SDS011;70269;44.768;9.600;2023-05-24T03:42:43;12.20;;;6.15;;
80623;SDS011;70269;44.768;9.600;2023-05-24T03:45:09;11.40;;;7.38;;
80623;SDS011;70269;44.768;9.600;2023-05-24T03:47:36;9.55;;;6.40;;
80623;SDS011;70269;44.768;9.600;2023-05-24T03:50:02;10.55;;;6.45;;
80623;SDS011;70269;44.768;9.600;2023-05-24T03:52:28;8.35;;;5.95;;
80623;SDS011;70269;44.768;9.600;2023-05-24T03:54:53;9.55;;;6.53;;
80623;SDS011;70269;44.768;9.600;2023-05-24T03:57:19;9.32;;;6.45;;
80623;SDS011;70269;44.768;9.600;2023-05-24T03:59:45;9.50;;;5.75;;
80623;SDS011;70269;44.768;9.600;2023-05-24T04:02:11;8.98;;;5.82;;
80623;SDS011;70269;44.768;9.600;2023-05-24T04:04:36;10.73;;;6.15;;
80623;SDS011;70269;44.768;9.600;2023-05-24T04:07:02;10.52;;;5.88;;
80623;SDS011;70269;44.768;9.600;2023-05-24T04:09:28;11.95;;;6.53;;
80623;SDS011;70269;44.768;9.600;2023-05-24T04:11:54;11.55;;;6.32;;
80623;SDS011;70269;44.768;9.600;2023-05-24T04:14:19;10.15;;;6.72;;
80623;SDS011;70269;44.768;9.600;2023-05-24T04:16:46;12.57;;;7.05;;
80623;SDS011;70269;44.768;9.600;2023-05-24T04:19:12;9.80;;;6.35;;
80623;SDS011;70269;44.768;9.600;2023-05-24T04:21:38;10.27;;;5.93;;
80623;SDS011;70269;44.768;9.600;2023-05-24T04:24:04;12.57;;;6.80;;
80623;SDS011;70269;44.768;9.600;2023-05-24T04:26:30;9.98;;;6.10;;
80623;SDS011;70269;44.768;9.600;2023-05-24T04:28:58;8.98;;;5.97;;
80623;SDS011;70269;44.768;9.600;2023-05-24T04:31:24;10.02;;;5.90;;
80623;SDS011;70269;44.768;9.600;2023-05-24T04:33:50;12.40;;;6.70;;
80623;SDS011;70269;44.768;9.600;2023-05-24T04:36:16;8.93;;;6.13;;
80623;SDS011;70269;44.768;9.600;2023-05-24T04:38:42;9.05;;;5.45;;
80623;SDS011;70269;44.768;9.600;2023-05-24T04:41:09;9.45;;;5.93;;
80623;SDS011;70269;44.768;9.600;2023-05-24T04:43:36;9.20;;;4.22;;
80623;SDS011;70269;44.768;9.600;2023-05-24T04:46:02;10.10;;;6.00;;
80623;SDS011;70269;44.768;9.600;2023-05-24T04:48:28;8.65;;;5.43;;
80623;SDS011;70269;44.768;9.600;2023-05-24T04:50:54;8.27;;;5.65;;
80623;SDS011;70269;44.768;9.600;2023-05-24T04:53:23;9.68;;;5.65;;
80623;SDS011;70269;44.768;9.600;2023-05-24T04:55:49;7.65;;;4.70;;
80623;SDS011;70269;44.768;9.600;2023-05-24T04:58:15;9.23;;;4.72;;
80623;SDS011;70269;44.768;9.600;2023-05-24T05:00:41;11.65;;;5.50;;
80623;SDS011;70269;44.768;9.600;2023-05-24T05:03:07;7.65;;;5.82;;
80623;SDS011;70269;44.768;9.600;2023-05-24T05:05:33;7.28;;;5.32;;
80623;SDS011;70269;44.768;9.600;2023-05-24T05:07:59;7.05;;;5.25;;
80623;SDS011;70269;44.768;9.600;2023-05-24T05:10:25;9.57;;;5.28;;
80623;SDS011;70269;44.768;9.600;2023-05-24T05:12:51;9.60;;;5.38;;
80623;SDS011;70269;44.768;9.600;2023-05-24T05:15:17;6.10;;;4.55;;
80623;SDS011;70269;44.768;9.600;2023-05-24T05:17:43;9.93;;;5.40;;
80623;SDS011;70269;44.768;9.600;2023-05-24T05:20:08;8.60;;;4.97;;
80623;SDS011;70269;44.768;9.600;2023-05-24T05:22:34;6.82;;;4.85;;
80623;SDS011;70269;44.768;9.600;2023-05-24T05:25:00;9.60;;;5.00;;
80623;SDS011;70269;44.768;9.600;2023-05-24T05:27:25;7.95;;;4.90;;
80623;SDS011;70269;44.768;9.600;2023-05-24T05:29:51;6.63;;;4.65;;
80623;SDS011;70269;44.768;9.600;2023-05-24T05:32:17;6.80;;;4.88;;
80623;SDS011;70269;44.768;9.600;2023-05-24T05:34:42;7.82;;;4.65;;
80623;SDS011;70269;44.768;9.600;2023-05-24T05:37:09;6.78;;;4.95;;
80623;SDS011;70269;44.768;9.600;2023-05-24T05:39:35;7.30;;;4.95;;
80623;SDS011;70269;44.768;9.600;2023-05-24T05:42:00;6.45;;;4.13;;
80623;SDS011;70269;44.768;9.600;2023-05-24T05:44:26;7.18;;;4.80;;
80623;SDS011;70269;44.768;9.600;2023-05-24T05:46:52;7.10;;;5.03;;
80623;SDS011;70269;44.768;9.600;2023-05-24T05:49:18;6.82;;;4.10;;
80623;SDS011;70269;44.768;9.600;2023-05-24T05:51:44;6.55;;;4.57;;
80623;SDS011;70269;44.768;9.600;2023-05-24T05:54:10;6.90;;;4.65;;
80623;SDS011;70269;44.768;9.600;2023-05-24T05:56:39;7.60;;;4.60;;
80623;SDS011;70269;44.768;9.600;2023-05-24T05:59:13;8.43;;;4.60;;
80623;SDS011;70269;44.768;9.600;2023-05-24T06:01:40;7.22;;;4.75;;
80623;SDS011;70269;44.768;9.600;2023-05-24T06:04:06;8.13;;;5.10;;
80623;SDS011;70269;44.768;9.600;2023-05-24T06:06:32;7.45;;;4.82;;
80623;SDS011;70269;44.768;9.600;2023-05-24T06:08:58;6.40;;;4.10;;
80623;SDS011;70269;44.768;9.600;2023-05-24T06:11:24;7.93;;;4.68;;
80623;SDS011;70269;44.768;9.600;2023-05-24T06:13:51;7.85;;;5.10;;
80623;SDS011;70269;44.768;9.600;2023-05-24T06:16:17;7.30;;;5.05;;
80623;SDS011;70269;44.768;9.600;2023-05-24T06:18:42;7.93;;;4.65;;
80623;SDS011;70269;44.768;9.600;2023-05-24T06:21:08;9.60;;;4.57;;
80623;SDS011;70269;44.768;9.600;2023-05-24T06:23:35;8.23;;;4.45;;
80623;SDS011;70269;44.768;9.600;2023-05-24T06:26:02;6.30;;;4.07;;
80623;SDS011;70269;44.768;9.600;2023-05-24T06:28:28;6.78;;;4.63;;
80623;SDS011;70269;44.768;9.600;2023-05-24T06:30:53;9.38;;;5.05;;
80623;SDS011;70269;44.768;9.600;2023-05-24T06:33:19;7.97;;;4.95;;
80623;SDS011;70269;44.768;9.600;2023-05-24T06:35:44;9.30;;;5.63;;
80623;SDS011;70269;44.768;9.600;2023-05-24T06:38:10;7.47;;;5.22;;
80623;SDS011;70269;44.768;9.600;2023-05-24T06:40:36;8.57;;;5.05;;
80623;SDS011;70269;44.768;9.600;2023-05-24T06:43:02;10.32;;;4.63;;
80623;SDS011;70269;44.768;9.600;2023-05-24T06:45:30;8.52;;;4.18;;
80623;SDS011;70269;44.768;9.600;2023-05-24T06:47:56;6.82;;;4.63;;
80623;SDS011;70269;44.768;9.600;2023-05-24T06:50:22;7.32;;;4.60;;
80623;SDS011;70269;44.768;9.600;2023-05-24T06:52:48;7.97;;;4.95;;
80623;SDS011;70269;44.768;9.600;2023-05-24T06:55:13;9.48;;;4.68;;
80623;SDS011;70269;44.768;9.600;2023-05-24T06:57:47;10.77;;;5.07;;
80623;SDS011;70269;44.768;9.600;2023-05-24T07:00:12;8.88;;;4.90;;
80623;SDS011;70269;44.768;9.600;2023-05-24T07:02:38;8.68;;;5.07;;
80623;SDS011;70269;44.768;9.600;2023-05-24T07:05:05;6.85;;;4.53;;
80623;SDS011;70269;44.768;9.600;2023-05-24T07:07:36;6.82;;;4.85;;
80623;SDS011;70269;44.768;9.600;2023-05-24T07:10:03;7.38;;;4.53;;
80623;SDS011;70269;44.768;9.600;2023-05-24T07:14:56;9.55;;;4.75;;
80623;SDS011;70269;44.768;9.600;2023-05-24T07:17:22;8.80;;;4.90;;
80623;SDS011;70269;44.768;9.600;2023-05-24T07:19:48;8.70;;;4.72;;
80623;SDS011;70269;44.768;9.600;2023-05-24T07:22:13;6.20;;;4.70;;
80623;SDS011;70269;44.768;9.600;2023-05-24T07:24:40;7.20;;;4.97;;
80623;SDS011;70269;44.768;9.600;2023-05-24T07:27:06;9.20;;;4.95;;
80623;SDS011;70269;44.768;9.600;2023-05-24T07:29:31;7.95;;;4.55;;
80623;SDS011;70269;44.768;9.600;2023-05-24T07:31:57;6.25;;;4.43;;
80623;SDS011;70269;44.768;9.600;2023-05-24T07:34:22;9.25;;;5.03;;
80623;SDS011;70269;44.768;9.600;2023-05-24T07:36:51;8.10;;;5.30;;
80623;SDS011;70269;44.768;9.600;2023-05-24T07:39:17;7.35;;;4.90;;
80623;SDS011;70269;44.768;9.600;2023-05-24T07:41:43;8.32;;;4.93;;
80623;SDS011;70269;44.768;9.600;2023-05-24T07:44:09;6.93;;;4.85;;
80623;SDS011;70269;44.768;9.600;2023-05-24T07:46:36;8.65;;;5.00;;
80623;SDS011;70269;44.768;9.600;2023-05-24T07:49:02;7.43;;;4.82;;
80623;SDS011;70269;44.768;9.600;2023-05-24T07:51:28;6.97;;;4.70;;
80623;SDS011;70269;44.768;9.600;2023-05-24T07:53:53;9.20;;;5.03;;
80623;SDS011;70269;44.768;9.600;2023-05-24T07:56:19;6.45;;;4.30;;
80623;SDS011;70269;44.768;9.600;2023-05-24T07:58:45;8.52;;;4.50;;
80623;SDS011;70269;44.768;9.600;2023-05-24T08:01:11;6.72;;;4.70;;
80623;SDS011;70269;44.768;9.600;2023-05-24T08:03:37;7.65;;;4.30;;
80623;SDS011;70269;44.768;9.600;2023-05-24T08:06:03;7.70;;;4.32;;
80623;SDS011;70269;44.768;9.600;2023-05-24T08:08:29;7.60;;;4.43;;
80623;SDS011;70269;44.768;9.600;2023-05-24T08:10:55;7.72;;;4.95;;
80623;SDS011;70269;44.768;9.600;2023-05-24T08:13:21;7.28;;;4.10;;
80623;SDS011;70269;44.768;9.600;2023-05-24T08:15:47;7.82;;;5.10;;
80623;SDS011;70269;44.768;9.600;2023-05-24T08:18:12;8.80;;;5.47;;
80623;SDS011;70269;44.768;9.600;2023-05-24T08:20:38;8.25;;;4.85;;
80623;SDS011;70269;44.768;9.600;2023-05-24T08:25:38;8.82;;;5.60;;
80623;SDS011;70269;44.768;9.600;2023-05-24T08:28:05;8.55;;;4.93;;
80623;SDS011;70269;44.768;9.600;2023-05-24T08:30:30;7.35;;;4.88;;
80623;SDS011;70269;44.768;9.600;2023-05-24T08:32:56;10.45;;;5.97;;
80623;SDS011;70269;44.768;9.600;2023-05-24T08:35:22;7.00;;;5.28;;
80623;SDS011;70269;44.768;9.600;2023-05-24T08:37:48;10.63;;;5.50;;
80623;SDS011;70269;44.768;9.600;2023-05-24T08:40:13;6.45;;;4.60;;
80623;SDS011;70269;44.768;9.600;2023-05-24T08:42:39;6.32;;;4.47;;
80623;SDS011;70269;44.768;9.600;2023-05-24T08:45:07;7.43;;;4.25;;
80623;SDS011;70269;44.768;9.600;2023-05-24T08:47:35;6.32;;;4.75;;
80623;SDS011;70269;44.768;9.600;2023-05-24T08:50:02;8.07;;;4.70;;
80623;SDS011;70269;44.768;9.600;2023-05-24T08:52:30;6.63;;;4.50;;
80623;SDS011;70269;44.768;9.600;2023-05-24T08:55:01;7.20;;;4.95;;
80623;SDS011;70269;44.768;9.600;2023-05-24T08:57:30;7.32;;;4.53;;
80623;SDS011;70269;44.768;9.600;2023-05-24T08:59:58;8.10;;;4.88;;
80623;SDS011;70269;44.768;9.600;2023-05-24T09:02:24;8.35;;;4.47;;
80623;SDS011;70269;44.768;9.600;2023-05-24T09:04:51;9.32;;;5.72;;
80623;SDS011;70269;44.768;9.600;2023-05-24T09:07:18;8.13;;;4.78;;
80623;SDS011;70269;44.768;9.600;2023-05-24T09:10:06;8.68;;;5.10;;
80623;SDS011;70269;44.768;9.600;2023-05-24T09:12:32;9.77;;;5.10;;
80623;SDS011;70269;44.768;9.600;2023-05-24T09:14:58;8.30;;;4.82;;
80623;SDS011;70269;44.768;9.600;2023-05-24T09:17:24;6.50;;;5.00;;
80623;SDS011;70269;44.768;9.600;2023-05-24T09:19:51;8.15;;;5.32;;
80623;SDS011;70269;44.768;9.600;2023-05-24T09:22:19;6.72;;;4.72;;
80623;SDS011;70269;44.768;9.600;2023-05-24T09:24:50;9.23;;;5.22;;
80623;SDS011;70269;44.768;9.600;2023-05-24T09:27:17;6.55;;;4.28;;
80623;SDS011;70269;44.768;9.600;2023-05-24T09:29:45;7.82;;;4.97;;
80623;SDS011;70269;44.768;9.600;2023-05-24T09:32:13;7.47;;;4.22;;
80623;SDS011;70269;44.768;9.600;2023-05-24T09:34:40;7.55;;;4.72;;
80623;SDS011;70269;44.768;9.600;2023-05-24T09:37:11;9.30;;;4.82;;
80623;SDS011;70269;44.768;9.600;2023-05-24T09:39:41;6.55;;;3.92;;
80623;SDS011;70269;44.768;9.600;2023-05-24T09:42:13;6.25;;;4.05;;
80623;SDS011;70269;44.768;9.600;2023-05-24T09:44:42;8.82;;;4.47;;
80623;SDS011;70269;44.768;9.600;2023-05-24T09:47:08;6.30;;;4.57;;
80623;SDS011;70269;44.768;9.600;2023-05-24T09:49:37;7.20;;;4.60;;
80623;SDS011;70269;44.768;9.600;2023-05-24T09:52:03;9.45;;;4.28;;
80623;SDS011;70269;44.768;9.600;2023-05-24T09:54:30;7.20;;;4.68;;
80623;SDS011;70269;44.768;9.600;2023-05-24T09:59:24;8.07;;;4.95;;
80623;SDS011;70269;44.768;9.600;2023-05-24T10:01:49;7.80;;;4.50;;
80623;SDS011;70269;44.768;9.600;2023-05-24T10:04:31;9.30;;;5.25;;
80623;SDS011;70269;44.768;9.600;2023-05-24T10:06:58;7.10;;;4.43;;
80623;SDS011;70269;44.768;9.600;2023-05-24T10:09:26;8.02;;;4.03;;
80623;SDS011;70269;44.768;9.600;2023-05-24T10:12:02;7.95;;;5.95;;
80623;SDS011;70269;44.768;9.600;2023-05-24T10:14:30;10.80;;;4.82;;
80623;SDS011;70269;44.768;9.600;2023-05-24T10:16:57;7.82;;;4.07;;
80623;SDS011;70269;44.768;9.600;2023-05-24T10:19:23;7.55;;;4.85;;
80623;SDS011;70269;44.768;9.600;2023-05-24T10:21:49;8.10;;;4.95;;
80623;SDS011;70269;44.768;9.600;2023-05-24T10:24:18;7.50;;;4.85;;
80623;SDS011;70269;44.768;9.600;2023-05-24T10:26:49;7.63;;;4.75;;
80623;SDS011;70269;44.768;9.600;2023-05-24T10:29:20;9.27;;;5.03;;
80623;SDS011;70269;44.768;9.600;2023-05-24T10:31:56;7.80;;;5.40;;
80623;SDS011;70269;44.768;9.600;2023-05-24T10:34:22;7.88;;;5.20;;
80623;SDS011;70269;44.768;9.600;2023-05-24T10:36:48;8.02;;;4.85;;
80623;SDS011;70269;44.768;9.600;2023-05-24T10:39:14;9.15;;;5.85;;
80623;SDS011;70269;44.768;9.600;2023-05-24T10:41:40;8.88;;;5.10;;
80623;SDS011;70269;44.768;9.600;2023-05-24T10:44:12;7.47;;;4.95;;
80623;SDS011;70269;44.768;9.600;2023-05-24T10:47:01;8.45;;;4.72;;
80623;SDS011;70269;44.768;9.600;2023-05-24T10:49:27;8.25;;;5.70;;
80623;SDS011;70269;44.768;9.600;2023-05-24T10:51:59;8.07;;;5.70;;
80623;SDS011;70269;44.768;9.600;2023-05-24T10:54:26;8.63;;;5.32;;
80623;SDS011;70269;44.768;9.600;2023-05-24T10:56:52;8.63;;;5.15;;
80623;SDS011;70269;44.768;9.600;2023-05-24T10:59:21;8.60;;;5.50;;
80623;SDS011;70269;44.768;9.600;2023-05-24T11:01:55;7.63;;;5.45;;
80623;SDS011;70269;44.768;9.600;2023-05-24T11:04:25;8.35;;;4.88;;
80623;SDS011;70269;44.768;9.600;2023-05-24T11:07:01;8.30;;;5.00;;
80623;SDS011;70269;44.768;9.600;2023-05-24T11:09:28;8.98;;;5.13;;
80623;SDS011;70269;44.768;9.600;2023-05-24T11:12:01;7.22;;;5.20;;
80623;SDS011;70269;44.768;9.600;2023-05-24T11:14:28;9.40;;;5.85;;
80623;SDS011;70269;44.768;9.600;2023-05-24T11:16:56;10.40;;;4.65;;
80623;SDS011;70269;44.768;9.600;2023-05-24T11:19:34;9.15;;;6.18;;
80623;SDS011;70269;44.768;9.600;2023-05-24T11:22:03;10.15;;;5.82;;
80623;SDS011;70269;44.768;9.600;2023-05-24T11:24:31;10.38;;;5.82;;
80623;SDS011;70269;44.768;9.600;2023-05-24T11:26:58;8.40;;;6.05;;
80623;SDS011;70269;44.768;9.600;2023-05-24T11:29:26;9.73;;;5.97;;
80623;SDS011;70269;44.768;9.600;2023-05-24T11:31:53;10.68;;;6.72;;
80623;SDS011;70269;44.768;9.600;2023-05-24T11:34:28;8.85;;;5.72;;
80623;SDS011;70269;44.768;9.600;2023-05-24T11:36:55;10.02;;;6.50;;
80623;SDS011;70269;44.768;9.600;2023-05-24T11:39:21;9.15;;;5.47;;
80623;SDS011;70269;44.768;9.600;2023-05-24T11:41:47;8.40;;;6.35;;
80623;SDS011;70269;44.768;9.600;2023-05-24T11:44:16;8.82;;;5.47;;
80623;SDS011;70269;44.768;9.600;2023-05-24T11:46:44;10.38;;;6.50;;
80623;SDS011;70269;44.768;9.600;2023-05-24T11:49:13;9.43;;;5.63;;
80623;SDS011;70269;44.768;9.600;2023-05-24T11:51:40;8.88;;;6.40;;
80623;SDS011;70269;44.768;9.600;2023-05-24T11:54:06;9.80;;;6.57;;
80623;SDS011;70269;44.768;9.600;2023-05-24T11:56:32;9.13;;;6.63;;
80623;SDS011;70269;44.768;9.600;2023-05-24T12:01:35;11.57;;;6.30;;
80623;SDS011;70269;44.768;9.600;2023-05-24T12:04:03;9.57;;;6.65;;
80623;SDS011;70269;44.768;9.600;2023-05-24T12:06:33;11.43;;;6.45;;
80623;SDS011;70269;44.768;9.600;2023-05-24T12:09:09;8.73;;;6.38;;
80623;SDS011;70269;44.768;9.600;2023-05-24T12:11:40;9.82;;;5.78;;
80623;SDS011;70269;44.768;9.600;2023-05-24T12:14:11;9.95;;;6.43;;
80623;SDS011;70269;44.768;9.600;2023-05-24T12:16:40;11.05;;;5.82;;
80623;SDS011;70269;44.768;9.600;2023-05-24T12:19:07;10.18;;;6.38;;
80623;SDS011;70269;44.768;9.600;2023-05-24T12:21:32;9.75;;;6.60;;
80623;SDS011;70269;44.768;9.600;2023-05-24T12:24:06;8.82;;;6.07;;
80623;SDS011;70269;44.768;9.600;2023-05-24T12:26:35;11.50;;;6.43;;
80623;SDS011;70269;44.768;9.600;2023-05-24T12:29:02;10.80;;;6.18;;
80623;SDS011;70269;44.768;9.600;2023-05-24T12:31:27;7.93;;;5.72;;
80623;SDS011;70269;44.768;9.600;2023-05-24T12:33:53;10.35;;;6.30;;
80623;SDS011;70269;44.768;9.600;2023-05-24T12:36:19;14.15;;;6.63;;
80623;SDS011;70269;44.768;9.600;2023-05-24T12:38:44;11.25;;;6.72;;
80623;SDS011;70269;44.768;9.600;2023-05-24T12:41:10;10.00;;;7.05;;
80623;SDS011;70269;44.768;9.600;2023-05-24T12:43:36;8.82;;;5.97;;
80623;SDS011;70269;44.768;9.600;2023-05-24T12:46:02;10.63;;;6.80;;
80623;SDS011;70269;44.768;9.600;2023-05-24T12:48:28;8.75;;;6.07;;
80623;SDS011;70269;44.768;9.600;2023-05-24T12:50:54;8.15;;;6.10;;
80623;SDS011;70269;44.768;9.600;2023-05-24T12:53:19;8.70;;;5.35;;
80623;SDS011;70269;44.768;9.600;2023-05-24T12:55:48;9.98;;;6.15;;
80623;SDS011;70269;44.768;9.600;2023-05-24T12:58:15;9.45;;;6.35;;
80623;SDS011;70269;44.768;9.600;2023-05-24T13:00:41;8.50;;;5.78;;
80623;SDS011;70269;44.768;9.600;2023-05-24T13:03:09;11.00;;;6.50;;
80623;SDS011;70269;44.768;9.600;2023-05-24T13:05:34;8.95;;;5.22;;
80623;SDS011;70269;44.768;9.600;2023-05-24T13:08:00;8.68;;;4.40;;
80623;SDS011;70269;44.768;9.600;2023-05-24T13:10:26;12.65;;;4.97;;
80623;SDS011;70269;44.768;9.600;2023-05-24T13:12:51;7.68;;;4.28;;
80623;SDS011;70269;44.768;9.600;2023-05-24T13:15:17;9.35;;;3.88;;
80623;SDS011;70269;44.768;9.600;2023-05-24T13:17:43;6.13;;;4.20;;
80623;SDS011;70269;44.768;9.600;2023-05-24T13:20:09;7.30;;;4.50;;
80623;SDS011;70269;44.768;9.600;2023-05-24T13:22:36;7.18;;;4.88;;
80623;SDS011;70269;44.768;9.600;2023-05-24T13:25:06;8.98;;;4.70;;
80623;SDS011;70269;44.768;9.600;2023-05-24T13:27:33;9.63;;;5.07;;
80623;SDS011;70269;44.768;9.600;2023-05-24T13:29:58;12.35;;;5.72;;
80623;SDS011;70269;44.768;9.600;2023-05-24T13:32:24;10.55;;;5.10;;
80623;SDS011;70269;44.768;9.600;2023-05-24T13:34:49;7.50;;;4.45;;
80623;SDS011;70269;44.768;9.600;2023-05-24T13:37:15;9.20;;;5.32;;
80623;SDS011;70269;44.768;9.600;2023-05-24T13:39:40;7.10;;;5.07;;
80623;SDS011;70269;44.768;9.600;2023-05-24T13:42:07;7.88;;;5.10;;
80623;SDS011;70269;44.768;9.600;2023-05-24T13:44:33;8.38;;;5.00;;
80623;SDS011;70269;44.768;9.600;2023-05-24T13:46:59;7.80;;;4.90;;
80623;SDS011;70269;44.768;9.600;2023-05-24T13:49:24;7.82;;;4.20;;
80623;SDS011;70269;44.768;9.600;2023-05-24T13:51:50;8.73;;;4.10;;
80623;SDS011;70269;44.768;9.600;2023-05-24T13:54:20;10.95;;;4.68;;
80623;SDS011;70269;44.768;9.600;2023-05-24T13:56:46;5.38;;;3.72;;
80623;SDS011;70269;44.768;9.600;2023-05-24T13:59:13;8.10;;;4.03;;
80623;SDS011;70269;44.768;9.600;2023-05-24T14:01:39;5.25;;;3.90;;
80623;SDS011;70269;44.768;9.600;2023-05-24T14:04:05;6.15;;;4.50;;
80623;SDS011;70269;44.768;9.600;2023-05-24T14:06:31;9.70;;;4.50;;
80623;SDS011;70269;44.768;9.600;2023-05-24T14:08:57;8.00;;;4.60;;
80623;SDS011;70269;44.768;9.600;2023-05-24T14:11:23;8.80;;;4.30;;
80623;SDS011;70269;44.768;9.600;2023-05-24T14:13:50;6.47;;;4.18;;
80623;SDS011;70269;44.768;9.600;2023-05-24T14:16:16;7.35;;;4.47;;
80623;SDS011;70269;44.768;9.600;2023-05-24T14:18:42;8.40;;;4.80;;
80623;SDS011;70269;44.768;9.600;2023-05-24T14:21:07;6.32;;;4.15;;
80623;SDS011;70269;44.768;9.600;2023-05-24T14:23:33;8.77;;;4.07;;
80623;SDS011;70269;44.768;9.600;2023-05-24T14:25:58;6.97;;;4.05;;
80623;SDS011;70269;44.768;9.600;2023-05-24T14:28:24;5.72;;;3.55;;
80623;SDS011;70269;44.768;9.600;2023-05-24T14:30:49;6.55;;;3.60;;
80623;SDS011;70269;44.768;9.600;2023-05-24T14:33:15;7.13;;;4.55;;
80623;SDS011;70269;44.768;9.600;2023-05-24T14:35:41;6.93;;;4.40;;
80623;SDS011;70269;44.768;9.600;2023-05-24T14:38:07;8.73;;;4.80;;
80623;SDS011;70269;44.768;9.600;2023-05-24T14:40:36;9.27;;;4.78;;
80623;SDS011;70269;44.768;9.600;2023-05-24T14:43:04;9.43;;;4.35;;
80623;SDS011;70269;44.768;9.600;2023-05-24T14:45:30;8.13;;;4.70;;
80623;SDS011;70269;44.768;9.600;2023-05-24T14:47:56;8.60;;;4.85;;
80623;SDS011;70269;44.768;9.600;2023-05-24T14:50:22;5.65;;;3.88;;
80623;SDS011;70269;44.768;9.600;2023-05-24T14:52:47;6.63;;;4.28;;
80623;SDS011;70269;44.768;9.600;2023-05-24T14:55:13;5.68;;;3.65;;
80623;SDS011;70269;44.768;9.600;2023-05-24T14:57:38;7.70;;;4.28;;
80623;SDS011;70269;44.768;9.600;2023-05-24T15:00:04;9.48;;;4.32;;
80623;SDS011;70269;44.768;9.600;2023-05-24T15:02:30;5.70;;;3.40;;
80623;SDS011;70269;44.768;9.600;2023-05-24T15:04:58;6.35;;;3.35;;
80623;SDS011;70269;44.768;9.600;2023-05-24T15:07:24;8.82;;;4.45;;
80623;SDS011;70269;44.768;9.600;2023-05-24T15:09:50;7.40;;;3.67;;